Time;durP1;ratioP1;P1;durP2;ratioP2;P2;SDS_P1;SDS_P2;PMS_P1;PMS_P2;Temp;Humidity;BMP_temperature;BMP_pressure;BME280_temperature;BME280_humidity;BME280_pressure;Samples;Min_cycle;Max_cycle;Signal;HPM_P1;HPM_P2
2021/08/27 00:02:17;;;;;;;0.60;0.60;;;21.70;52.40;;;25.40;35.74;100973.50;5093827;28;20051;-35
2021/08/27 00:04:43;;;;;;;0.60;0.60;;;21.70;52.50;;;25.40;35.79;100973.50;5093665;28;20052;-34
2021/08/27 00:07:09;;;;;;;1.50;0.57;;;21.70;52.50;;;25.40;35.54;100965.47;5093662;28;20048;-34
2021/08/27 00:09:34;;;;;;;0.77;0.50;;;21.70;52.50;;;25.40;35.83;100969.97;5093461;28;20055;-34
2021/08/27 00:12:01;;;;;;;0.55;0.50;;;21.70;52.50;;;25.35;35.92;100953.44;5094036;28;20064;-34
2021/08/27 00:14:27;;;;;;;0.63;0.60;;;21.70;52.50;;;25.34;35.89;100960.59;5093335;28;20401;-34
2021/08/27 00:16:53;;;;;;;0.68;0.52;;;21.70;52.50;;;25.38;35.90;100963.91;5093571;28;20044;-34
2021/08/27 00:19:19;;;;;;;0.50;0.50;;;21.60;52.50;;;25.36;35.74;100955.97;5093282;28;20055;-34
2021/08/27 00:21:45;;;;;;;0.50;0.50;;;21.70;52.60;;;25.35;35.80;100962.28;5093348;28;20048;-34
2021/08/27 00:24:11;;;;;;;0.85;0.70;;;21.60;52.50;;;25.32;35.77;100960.69;5093499;28;20044;-34
2021/08/27 00:26:37;;;;;;;1.00;0.60;;;21.60;52.60;;;25.33;35.90;100958.91;5093385;28;20058;-33
2021/08/27 00:29:03;;;;;;;0.60;0.60;;;21.60;52.60;;;25.33;35.85;100964.25;5093332;28;20052;-34
2021/08/27 00:31:29;;;;;;;1.10;0.63;;;21.60;52.60;;;25.29;35.93;100960.09;5093213;28;20036;-33
2021/08/27 00:33:56;;;;;;;0.85;0.63;;;21.60;52.60;;;25.31;36.03;100966.19;5093268;28;20055;-33
2021/08/27 00:36:22;;;;;;;0.65;0.60;;;21.60;52.60;;;25.31;35.93;100963.53;5091351;28;20109;-34
2021/08/27 00:38:47;;;;;;;0.70;0.60;;;21.60;52.60;;;25.30;35.84;100953.78;5093218;28;20056;-33
2021/08/27 00:41:14;;;;;;;1.05;0.70;;;21.60;52.70;;;25.27;36.04;100951.34;5093197;28;20478;-34
2021/08/27 00:43:40;;;;;;;0.90;0.52;;;21.60;52.70;;;25.27;35.92;100949.50;5074412;28;20096;-34
2021/08/27 00:46:05;;;;;;;0.60;0.60;;;21.50;52.70;;;25.25;35.90;100945.22;5093417;28;20048;-34
2021/08/27 00:48:31;;;;;;;0.60;0.60;;;21.60;52.70;;;25.26;35.94;100944.25;5093292;28;20055;-34
2021/08/27 00:50:57;;;;;;;0.60;0.55;;;21.60;52.70;;;25.24;35.99;100943.53;5093325;28;20039;-34
2021/08/27 00:53:23;;;;;;;0.50;0.50;;;21.60;52.70;;;25.23;36.05;100941.84;5092991;28;20044;-34
2021/08/27 00:55:49;;;;;;;0.50;0.50;;;21.50;52.70;;;25.23;36.06;100944.50;5092832;28;20052;-35
2021/08/27 00:58:15;;;;;;;0.85;0.82;;;21.50;52.70;;;25.24;36.07;100938.16;5092845;28;20131;-34
2021/08/27 01:00:45;;;;;;;0.77;0.77;;;21.60;52.80;;;25.23;36.07;100941.84;5093445;28;20583;-34
2021/08/27 01:03:13;;;;;;;0.63;0.60;;;21.60;52.80;;;25.20;36.13;100934.03;5092969;28;20043;-34
2021/08/27 01:05:43;;;;;;;1.27;0.60;;;21.50;52.80;;;25.18;36.00;100934.16;5074720;28;20051;-34
2021/08/27 01:08:31;;;;;;;0.60;0.60;;;21.50;52.80;;;25.19;36.20;100935.84;5093253;28;20134;-34
2021/08/27 01:11:21;;;;;;;0.50;0.50;;;21.50;52.80;;;25.19;36.25;100926.97;5074583;28;20327;-34
2021/08/27 01:14:00;;;;;;;0.57;0.57;;;21.50;52.80;;;25.18;36.14;100919.94;5074737;28;20040;-34
2021/08/27 01:16:34;;;;;;;0.60;0.60;;;21.50;52.80;;;25.17;36.12;100921.75;5091224;28;20071;-34
2021/08/27 01:19:37;;;;;;;0.50;0.50;;;21.50;52.90;;;25.19;36.04;100924.31;5092772;28;20055;-34
2021/08/27 01:22:11;;;;;;;0.50;0.50;;;21.50;52.90;;;25.17;36.14;100929.78;5092745;28;20379;-34
2021/08/27 01:24:38;;;;;;;0.65;0.65;;;21.50;52.90;;;25.15;36.29;100924.53;5072871;28;20445;-34
2021/08/27 01:27:07;;;;;;;0.60;0.60;;;21.40;52.90;;;25.15;36.29;100929.06;5090932;28;20394;-34
2021/08/27 01:30:04;;;;;;;0.50;0.50;;;21.50;52.90;;;25.13;36.19;100920.31;5073552;28;20442;-34
2021/08/27 01:32:39;;;;;;;0.50;0.50;;;21.50;52.90;;;25.15;36.11;100932.56;5092481;28;20083;-34
2021/08/27 01:35:07;;;;;;;0.60;0.50;;;21.40;52.90;;;25.14;36.06;100927.34;5074282;28;20060;-34
2021/08/27 01:37:35;;;;;;;0.60;0.60;;;21.40;52.90;;;25.12;36.33;100922.09;5091380;28;20084;-34
2021/08/27 01:40:01;;;;;;;0.60;0.60;;;21.40;53.00;;;25.14;36.22;100935.34;5092294;28;20043;-34
2021/08/27 01:42:29;;;;;;;0.75;0.65;;;21.40;53.00;;;25.14;36.22;100927.34;5075374;28;20044;-34
2021/08/27 01:44:58;;;;;;;0.50;0.50;;;21.40;53.00;;;25.12;36.16;100927.44;5077769;28;20052;-34
2021/08/27 01:47:31;;;;;;;0.60;0.60;;;21.40;53.00;;;25.10;36.16;100918.69;5077757;28;20044;-34
2021/08/27 01:50:04;;;;;;;1.20;0.60;;;21.40;53.50;;;25.11;36.12;100931.13;5095963;28;20052;-34
2021/08/27 01:52:32;;;;;;;0.63;0.63;;;21.40;53.00;;;25.10;36.22;100916.03;5096245;28;20135;-34
2021/08/27 01:55:01;;;;;;;0.60;0.60;;;21.40;53.00;;;25.10;36.30;100912.50;5095767;28;20147;-34
2021/08/27 01:57:29;;;;;;;1.38;0.73;;;21.40;53.10;;;25.07;36.24;100908.25;5077783;28;20500;-34
2021/08/27 01:59:57;;;;;;;0.85;0.70;;;21.40;53.00;;;25.08;36.34;100917.13;5077712;28;20051;-34
2021/08/27 02:02:26;;;;;;;0.75;0.50;;;21.40;53.10;;;25.06;36.28;100911.91;5094424;28;20071;-34
2021/08/27 02:04:58;;;;;;;0.50;0.50;;;21.40;53.10;;;25.07;36.21;100910.06;5094409;28;20546;-34
2021/08/27 02:07:25;;;;;;;0.40;0.40;;;21.40;53.10;;;25.08;36.19;100911.78;5077145;28;20052;-33
2021/08/27 02:09:55;;;;;;;0.45;0.45;;;21.40;53.40;;;25.06;36.35;100914.56;5077381;28;20055;-34
2021/08/27 02:12:24;;;;;;;0.60;0.60;;;21.40;53.10;;;25.07;36.19;100928.78;5094301;28;20044;-34
2021/08/27 02:14:55;;;;;;;0.43;0.43;;;21.30;53.10;;;25.06;36.26;100925.28;5077172;28;20044;-34
2021/08/27 02:17:26;;;;;;;0.50;0.50;;;21.30;53.10;;;25.05;36.48;100925.41;5095360;28;20509;-34
2021/08/27 02:19:54;;;;;;;;;;;21.30;53.10;;;25.17;35.96;100920.91;5095762;28;20131;-34
2021/08/27 02:22:22;;;;;;;0.50;0.50;;;21.30;53.20;;;25.09;36.07;100921.50;5095407;28;19916;-34
2021/08/27 02:25:04;;;;;;;0.75;0.70;;;21.30;53.20;;;25.04;36.29;100910.31;5077360;28;20048;-34
2021/08/27 02:27:34;;;;;;;0.80;0.60;;;21.30;53.20;;;25.03;36.34;100916.66;5093960;28;20067;-34
2021/08/27 02:30:02;;;;;;;0.70;0.45;;;21.30;53.20;;;25.03;36.41;100914.81;5093900;28;20097;-34
2021/08/27 02:32:28;;;;;;;1.00;0.60;;;21.30;53.20;;;25.04;36.24;100919.22;5095104;28;20128;-34
2021/08/27 02:35:00;;;;;;;1.08;0.60;;;21.30;53.20;;;24.99;36.37;100907.16;5077026;28;20050;-34
2021/08/27 02:37:30;;;;;;;0.82;0.60;;;21.30;53.20;;;24.98;36.42;100902.78;5076936;28;20051;-34
2021/08/27 02:39:57;;;;;;;0.60;0.60;;;21.30;53.20;;;25.00;36.54;100915.06;5076319;28;20044;-34
2021/08/27 02:42:27;;;;;;;0.50;0.50;;;21.30;53.30;;;25.00;36.34;100914.22;5077331;28;20040;-34
2021/08/27 02:44:54;;;;;;;0.90;0.73;;;21.30;53.20;;;25.00;36.36;100914.22;5095384;28;20052;-34
2021/08/27 02:47:23;;;;;;;0.50;0.50;;;21.30;53.20;;;25.01;36.41;100910.53;5094988;28;20048;-34
2021/08/27 02:49:49;;;;;;;0.57;0.57;;;21.30;53.30;;;25.00;36.45;100923.06;5095019;28;20052;-34
2021/08/27 02:52:26;;;;;;;0.57;0.57;;;21.30;53.30;;;24.94;36.44;100903.03;5094330;28;20044;-34
2021/08/27 02:55:11;;;;;;;0.60;0.57;;;21.30;53.30;;;24.96;36.56;100909.09;5094739;28;20473;-34
2021/08/27 02:57:58;;;;;;;0.57;0.57;;;21.30;53.30;;;24.95;36.40;100904.69;5077083;28;20055;-34
2021/08/27 03:00:26;;;;;;;0.60;0.60;;;21.30;53.30;;;24.96;36.35;100900.22;5095085;28;20512;-34
2021/08/27 03:02:53;;;;;;;0.50;0.50;;;21.20;53.30;;;24.96;36.40;100901.06;5093548;28;20044;-34
2021/08/27 03:05:23;;;;;;;0.85;0.65;;;21.30;53.30;;;24.96;36.57;100909.09;5076836;28;20052;-34
2021/08/27 03:08:15;;;;;;;0.50;0.50;;;21.20;53.30;;;24.95;36.43;100894.00;5094662;28;20489;-34
2021/08/27 03:10:52;;;;;;;0.70;0.70;;;21.30;53.30;;;24.98;36.52;100900.94;5076408;28;20060;-34
2021/08/27 03:13:34;;;;;;;0.65;0.55;;;21.30;53.30;;;25.03;36.35;100900.59;5095261;28;20072;-34
2021/08/27 03:16:04;;;;;;;0.60;0.60;;;21.40;53.30;;;25.05;36.46;100891.47;5094349;28;20052;-34
2021/08/27 03:18:55;;;;;;;0.50;0.50;;;21.40;53.20;;;25.09;36.35;100882.25;5094790;28;20048;-34
2021/08/27 03:21:38;;;;;;;;;;;21.40;53.10;;;25.27;36.09;100892.47;5095462;28;20487;-34
2021/08/27 03:24:20;;;;;;;0.50;0.50;;;21.40;53.00;;;25.20;36.00;100883.19;5094819;28;19965;-34
2021/08/27 03:26:53;;;;;;;0.50;0.50;;;21.50;53.00;;;25.24;36.23;100879.28;5093299;28;20094;-34
2021/08/27 03:29:21;;;;;;;0.55;0.55;;;21.50;52.90;;;25.26;36.12;100878.25;5075799;28;20052;-34
2021/08/27 03:31:48;;;;;;;0.50;0.50;;;21.50;52.80;;;25.27;36.01;100868.38;5092322;28;20140;-34
2021/08/27 03:34:14;;;;;;;0.40;0.40;;;21.60;52.70;;;25.33;35.99;100879.44;5093469;28;20055;-34
2021/08/27 03:36:41;;;;;;;0.40;0.40;;;21.60;52.60;;;25.35;35.82;100868.63;5076104;28;20052;-34
2021/08/27 03:39:08;;;;;;;0.50;0.50;;;21.60;52.60;;;25.38;35.88;100872.88;5076161;28;20434;-34
2021/08/27 03:41:40;;;;;;;0.60;0.60;;;21.60;52.50;;;25.41;35.88;100869.94;5094183;28;20071;-34
2021/08/27 03:44:07;;;;;;;0.40;0.40;;;21.60;52.50;;;25.42;35.78;100860.94;5076098;28;20104;-34
2021/08/27 03:46:37;;;;;;;0.40;0.40;;;21.60;52.50;;;25.40;35.82;100852.19;5094017;28;20060;-34
2021/08/27 03:49:03;;;;;;;0.60;0.60;;;21.60;52.40;;;25.44;35.73;100859.00;5094348;28;20202;-34
2021/08/27 03:51:29;;;;;;;0.60;0.55;;;21.60;52.40;;;25.45;35.67;100853.50;5093991;28;20043;-34
2021/08/27 03:53:55;;;;;;;0.50;0.50;;;21.60;52.40;;;25.48;35.66;100861.28;5092824;28;20044;-35
2021/08/27 03:56:25;;;;;;;0.50;0.50;;;21.60;52.40;;;25.47;35.60;100864.94;5093846;28;20059;-34
2021/08/27 03:58:52;;;;;;;0.65;0.50;;;21.60;52.50;;;25.45;35.64;100853.50;5091954;28;20524;-34
2021/08/27 04:01:21;;;;;;;0.55;0.55;;;21.60;52.50;;;25.48;35.59;100860.47;5092466;28;20039;-34
2021/08/27 04:03:46;;;;;;;0.45;0.45;;;21.60;52.40;;;25.46;35.49;100852.56;5092875;28;20052;-34
2021/08/27 04:06:12;;;;;;;0.52;0.52;;;21.60;52.50;;;25.46;35.60;100857.03;5075643;28;20060;-35
2021/08/27 04:08:41;;;;;;;0.68;0.60;;;21.60;52.50;;;25.49;35.59;100860.34;5093713;28;20098;-35
2021/08/27 04:11:10;;;;;;;0.73;0.50;;;21.60;52.50;;;25.48;35.55;100853.25;5075509;28;20056;-34
2021/08/27 04:13:36;;;;;;;0.60;0.60;;;21.60;52.40;;;25.51;35.69;100863.72;5093668;28;20098;-35
2021/08/27 04:16:02;;;;;;;0.50;0.50;;;21.70;52.40;;;25.52;35.52;100854.69;5093567;28;20044;-34
2021/08/27 04:18:28;;;;;;;0.60;0.55;;;21.60;52.40;;;25.51;35.60;100852.19;5093470;28;20051;-34
2021/08/27 04:20:54;;;;;;;0.68;0.50;;;21.60;52.40;;;25.49;35.43;100851.44;5093380;28;20051;-35
2021/08/27 04:23:20;;;;;;;0.50;0.50;;;21.60;52.40;;;25.48;35.62;100853.25;5075347;28;20040;-34
2021/08/27 04:25:46;;;;;;;0.50;0.50;;;21.60;52.50;;;25.49;35.61;100851.44;5093530;28;20109;-34
2021/08/27 04:28:12;;;;;;;0.70;0.70;;;21.60;52.50;;;25.46;35.62;100846.31;5093380;28;20056;-35
2021/08/27 04:30:38;;;;;;;0.75;0.52;;;21.60;52.50;;;25.44;35.59;100840.25;5093381;28;20047;-34
2021/08/27 04:33:04;;;;;;;0.50;0.50;;;21.60;52.60;;;25.45;35.61;100841.97;5093411;28;20166;-34
2021/08/27 04:35:30;;;;;;;0.60;0.60;;;21.60;52.60;;;25.42;35.57;100847.56;5093770;28;20131;-35
2021/08/27 04:37:56;;;;;;;0.60;0.60;;;21.60;52.60;;;25.44;35.66;100854.50;5093578;28;20046;-35
2021/08/27 04:40:24;;;;;;;0.50;0.50;;;21.60;53.10;;;25.42;35.54;100851.06;5093239;28;20052;-34
2021/08/27 04:42:49;;;;;;;0.65;0.65;;;21.60;52.60;;;25.42;35.52;100853.75;5093194;28;20044;-34
2021/08/27 04:45:15;;;;;;;0.50;0.50;;;21.60;52.60;;;25.45;35.70;100850.00;5093119;28;20040;-34
2021/08/27 04:47:41;;;;;;;0.65;0.55;;;21.60;52.50;;;25.44;35.55;100854.50;5093111;28;20054;-35
2021/08/27 04:50:09;;;;;;;0.60;0.60;;;21.60;52.50;;;25.46;35.58;100852.56;5093052;28;20089;-35
2021/08/27 04:52:37;;;;;;;0.50;0.50;;;21.60;52.50;;;25.48;35.37;100847.06;5092941;28;20463;-34
2021/08/27 04:55:06;;;;;;;0.47;0.47;;;21.60;52.50;;;25.46;35.53;100847.19;5093302;28;20404;-34
2021/08/27 04:57:37;;;;;;;0.50;0.50;;;21.60;52.50;;;25.50;35.58;100845.94;5093610;28;20051;-34
2021/08/27 05:00:08;;;;;;;0.50;0.50;;;21.60;52.50;;;25.51;35.54;100847.66;5093611;28;20040;-34
2021/08/27 05:02:34;;;;;;;0.65;0.60;;;21.60;52.50;;;25.49;35.46;100846.06;5093436;28;20040;-34
2021/08/27 05:05:00;;;;;;;0.57;0.47;;;21.60;52.50;;;25.51;35.62;100845.00;5092899;28;20058;-34
2021/08/27 05:07:25;;;;;;;0.70;0.55;;;21.60;52.50;;;25.51;35.37;100852.19;5092782;28;20409;-34
2021/08/27 05:09:52;;;;;;;0.63;0.50;;;21.60;52.50;;;25.52;35.62;100853.88;5092917;28;20481;-34
2021/08/27 05:12:18;;;;;;;0.55;0.55;;;21.60;52.50;;;25.55;35.40;100852.78;5093132;28;20044;-34
2021/08/27 05:14:44;;;;;;;0.65;0.60;;;21.60;52.50;;;25.53;35.42;100850.22;5074187;28;20401;-34
2021/08/27 05:17:10;;;;;;;0.65;0.52;;;21.60;52.40;;;25.54;35.48;100859.94;5092446;28;20485;-34
2021/08/27 05:19:37;;;;;;;0.52;0.50;;;21.60;52.40;;;25.54;35.43;100856.41;5092287;28;20558;-34
2021/08/27 05:22:03;;;;;;;0.90;0.70;;;21.60;52.40;;;25.54;35.44;100859.94;5090648;28;20474;-34
2021/08/27 05:24:28;;;;;;;0.40;0.40;;;21.70;52.50;;;25.55;35.43;100858.97;5092374;28;20052;-34
2021/08/27 05:26:54;;;;;;;0.60;0.50;;;21.70;52.40;;;25.59;35.40;100860.41;5092573;28;20059;-34
2021/08/27 05:29:20;;;;;;;0.40;0.40;;;21.70;52.40;;;25.60;35.41;100858.59;5092123;28;20040;-34
2021/08/27 05:31:46;;;;;;;0.57;0.57;;;21.60;52.30;;;25.61;35.46;100858.47;5092494;28;20050;-34
2021/08/27 05:34:12;;;;;;;0.50;0.50;;;21.70;52.30;;;25.63;35.34;100863.72;5092673;28;20044;-34
2021/08/27 05:36:37;;;;;;;0.43;0.43;;;21.70;52.30;;;25.63;35.47;100859.19;5092340;28;20040;-34
2021/08/27 05:39:03;;;;;;;0.50;0.50;;;21.70;52.30;;;25.66;35.20;100860.75;5092279;28;20097;-35
2021/08/27 05:41:29;;;;;;;0.60;0.60;;;21.70;52.20;;;25.66;35.19;100856.28;5092293;28;20134;-34
2021/08/27 05:43:55;;;;;;;0.52;0.43;;;21.80;52.20;;;25.70;35.26;100863.06;5092253;28;20079;-34
2021/08/27 05:46:21;;;;;;;0.50;0.50;;;21.80;52.20;;;25.74;35.12;100865.50;5092545;28;20405;-34
2021/08/27 05:48:47;;;;;;;0.40;0.40;;;21.80;52.10;;;25.72;35.13;100860.25;5092270;28;20044;-34
2021/08/27 05:51:13;;;;;;;0.60;0.60;;;21.80;52.10;;;25.73;35.11;100861.97;5092468;28;20048;-34
2021/08/27 05:53:38;;;;;;;0.55;0.52;;;21.80;52.10;;;25.76;35.00;100866.22;5092047;28;20103;-34
2021/08/27 05:56:04;;;;;;;0.85;0.50;;;21.80;52.10;;;25.76;35.25;100866.22;5092465;28;20056;-34
2021/08/27 05:58:30;;;;;;;0.50;0.50;;;21.80;52.00;;;25.81;35.02;100866.69;5092053;28;20123;-34
2021/08/27 06:00:56;;;;;;;1.13;0.60;;;21.80;52.00;;;25.80;35.03;100875.72;5092113;28;20055;-34
2021/08/27 06:03:22;;;;;;;0.50;0.50;;;21.80;52.00;;;25.77;34.94;100863.41;5092314;28;20052;-34
2021/08/27 06:05:48;;;;;;;0.57;0.50;;;21.80;52.00;;;25.79;34.96;100868.63;5091998;28;20048;-34
2021/08/27 06:08:13;;;;;;;0.50;0.50;;;21.80;52.00;;;25.76;35.04;100869.75;5091625;28;20044;-35
2021/08/27 06:10:39;;;;;;;0.60;0.60;;;21.80;52.00;;;25.77;34.81;100874.13;5092268;28;20056;-34
2021/08/27 06:13:05;;;;;;;0.57;0.57;;;21.80;52.00;;;25.78;34.96;100866.97;5089266;28;20045;-34
2021/08/27 06:15:31;;;;;;;0.50;0.50;;;21.80;52.00;;;25.79;34.91;100879.34;5074039;28;20048;-34
2021/08/27 06:17:57;;;;;;;0.57;0.57;;;21.80;52.00;;;25.79;34.80;100879.34;5091829;28;20040;-35
2021/08/27 06:20:23;;;;;;;0.50;0.50;;;21.80;52.00;;;25.79;34.97;100880.19;5091878;28;20127;-34
2021/08/27 06:22:49;;;;;;;0.47;0.40;;;21.80;52.00;;;25.79;35.00;100876.69;5089778;28;20044;-34
2021/08/27 06:25:15;;;;;;;1.13;0.65;;;21.80;52.00;;;25.79;34.80;100882.03;5091863;28;20048;-34
2021/08/27 06:27:40;;;;;;;0.50;0.50;;;21.80;52.00;;;25.77;34.93;100879.47;5075226;28;20117;-35
2021/08/27 06:30:07;;;;;;;0.70;0.68;;;21.80;52.00;;;25.81;35.00;100885.44;5095308;28;20514;-34
2021/08/27 06:32:34;;;;;;;0.85;0.57;;;21.80;52.00;;;25.79;34.86;100884.72;5095253;28;20098;-34
2021/08/27 06:35:00;;;;;;;0.70;0.70;;;21.80;52.00;;;25.81;34.94;100893.47;5094947;28;20123;-34
2021/08/27 06:40:14;;;;;;;0.68;0.65;;;21.80;52.00;;;25.81;34.93;100890.78;5095674;28;20040;-35
2021/08/27 06:42:40;;;;;;;0.88;0.70;;;21.80;52.00;;;25.83;35.01;100889.69;5077272;28;20040;-34
2021/08/27 06:45:08;;;;;;;0.77;0.43;;;21.90;51.90;;;25.87;34.83;100899.16;5094957;28;20044;-34
2021/08/27 06:47:34;;;;;;;1.00;0.77;;;21.90;51.90;;;25.87;34.83;100891.13;5094879;28;20089;-34
2021/08/27 06:49:59;;;;;;;0.60;0.60;;;21.90;51.80;;;25.89;34.76;100891.00;5095243;28;20197;-34
2021/08/27 06:52:27;;;;;;;0.50;0.50;;;21.90;51.80;;;25.91;34.88;100899.78;5095144;28;20097;-35
2021/08/27 06:54:53;;;;;;;0.70;0.70;;;21.90;51.80;;;25.87;34.94;100895.66;5094558;28;20405;-35
2021/08/27 06:57:19;;;;;;;0.50;0.50;;;21.90;51.80;;;25.90;34.74;100900.75;5094810;28;20480;-34
2021/08/27 06:59:45;;;;;;;1.00;0.90;;;21.90;51.80;;;25.88;34.74;100898.19;5094812;28;20081;-34
2021/08/27 07:02:10;;;;;;;1.10;0.68;;;21.90;51.80;;;25.89;34.70;100899.03;5094985;28;20101;-34
2021/08/27 07:04:36;;;;;;;0.80;0.60;;;21.90;51.80;;;25.88;34.82;100902.72;5094474;28;20060;-35
2021/08/27 07:07:02;;;;;;;0.60;0.60;;;21.90;51.80;;;25.89;34.65;100897.25;5092002;28;20052;-34
2021/08/27 07:09:28;;;;;;;0.70;0.60;;;21.90;51.80;;;25.93;34.75;100902.31;5094404;28;20149;-34
2021/08/27 07:11:53;;;;;;;0.40;0.40;;;21.90;51.70;;;25.96;34.69;100904.78;5094513;28;20067;-34
2021/08/27 07:14:19;;;;;;;1.58;0.60;;;22.00;51.70;;;25.99;34.65;100905.38;5094747;28;20059;-35
2021/08/27 07:16:45;;;;;;;0.60;0.50;;;22.00;51.60;;;26.02;34.62;100898.91;5094413;28;20074;-34
2021/08/27 07:19:11;;;;;;;0.60;0.60;;;22.00;51.50;;;26.01;34.66;100891.84;5094235;28;20044;-34
2021/08/27 07:21:37;;;;;;;0.60;0.60;;;22.00;51.50;;;26.05;34.47;100910.22;5094314;28;20398;-34
2021/08/27 07:24:03;;;;;;;0.75;0.60;;;22.10;51.50;;;26.07;34.54;100905.59;5094384;28;20101;-35
2021/08/27 07:26:28;;;;;;;0.63;0.50;;;22.10;51.40;;;26.12;34.55;100910.56;5076605;28;20051;-35
2021/08/27 07:28:54;;;;;;;0.45;0.45;;;22.10;51.30;;;26.18;34.42;100907.38;5094104;28;20482;-35
2021/08/27 07:31:20;;;;;;;1.33;0.60;;;22.20;51.20;;;26.24;34.21;100916.72;5094670;28;20044;-34
2021/08/27 07:33:46;;;;;;;1.15;0.60;;;22.30;51.00;;;26.25;34.17;100908.56;5094231;28;20048;-35
2021/08/27 07:36:11;;;;;;;0.50;0.50;;;22.30;50.90;;;26.28;34.25;100915.50;5094430;28;20054;-35
2021/08/27 07:38:37;;;;;;;0.80;0.60;;;22.30;50.90;;;26.27;34.12;100918.31;5093143;28;20040;-34
2021/08/27 07:41:03;;;;;;;0.77;0.77;;;22.20;51.00;;;26.27;34.21;100919.16;5094732;28;20044;-35
2021/08/27 07:43:29;;;;;;;1.73;0.52;;;22.20;51.10;;;26.23;34.21;100912.38;5094409;28;20182;-35
2021/08/27 07:45:57;;;;;;;0.68;0.68;;;22.20;51.10;;;26.22;34.33;100918.69;5094615;28;20052;-34
2021/08/27 07:48:27;;;;;;;0.60;0.52;;;22.20;51.10;;;26.20;34.26;100917.97;5093966;28;20056;-34
2021/08/27 07:50:53;;;;;;;0.60;0.60;;;22.10;51.20;;;26.19;34.30;100918.94;5094146;28;20036;-34
2021/08/27 07:53:20;;;;;;;1.13;0.70;;;22.10;51.30;;;26.13;34.48;100924.81;5093871;28;20044;-35
2021/08/27 07:55:46;;;;;;;0.75;0.65;;;22.10;51.50;;;26.09;34.35;100934.09;5094362;28;20401;-35
2021/08/27 07:58:12;;;;;;;1.27;0.80;;;22.00;51.60;;;26.07;34.59;100934.22;5093659;28;20059;-34
2021/08/27 08:00:37;;;;;;;1.00;0.70;;;22.00;51.60;;;26.05;34.52;100937.03;5093882;28;20195;-35
2021/08/27 08:03:03;;;;;;;0.98;0.73;;;22.00;51.60;;;26.03;34.54;100930.09;5093789;28;20052;-35
2021/08/27 08:05:29;;;;;;;1.27;0.80;;;22.00;51.60;;;26.06;34.57;100935.19;5094288;28;20459;-34
2021/08/27 08:07:55;;;;;;;1.73;0.70;;;22.00;51.60;;;26.07;34.50;100931.53;5093659;28;20047;-35
2021/08/27 08:10:21;;;;;;;1.05;0.77;;;22.10;51.60;;;26.09;34.57;100928.75;5094109;28;20093;-34
2021/08/27 08:12:46;;;;;;;1.65;0.70;;;22.10;51.50;;;26.11;34.45;100934.81;5093372;28;20174;-34
2021/08/27 08:15:12;;;;;;;1.40;0.80;;;22.10;51.40;;;26.17;34.46;100937.84;5093348;28;20126;-35
2021/08/27 08:17:38;;;;;;;0.50;0.50;;;22.20;51.30;;;26.26;34.36;100941.56;5073286;28;20036;-34
2021/08/27 08:20:05;;;;;;;1.02;0.60;;;22.30;51.10;;;26.34;34.10;100947.16;5093253;28;20465;-34
2021/08/27 08:22:31;;;;;;;0.57;0.50;;;22.40;50.80;;;26.37;34.14;100944.22;5093866;28;20044;-34
2021/08/27 08:24:57;;;;;;;1.05;0.80;;;22.40;50.70;;;26.38;34.17;100945.06;5093342;28;20078;-34
2021/08/27 08:27:26;;;;;;;1.38;0.85;;;22.50;51.30;;;26.39;34.02;100944.09;5093382;28;20135;-34
2021/08/27 08:29:53;;;;;;;1.35;0.80;;;22.40;50.70;;;26.39;34.09;100954.81;5093534;28;20473;-34
2021/08/27 08:32:19;;;;;;;0.85;0.65;;;22.40;50.70;;;26.40;34.03;100951.16;5093164;28;20402;-34
2021/08/27 08:34:45;;;;;;;0.98;0.60;;;22.50;50.80;;;26.44;33.92;100955.28;5090506;28;20051;-34
2021/08/27 08:37:11;;;;;;;1.77;0.90;;;22.40;50.70;;;26.41;33.91;100955.53;5093335;28;20048;-35
2021/08/27 08:39:37;;;;;;;1.13;0.88;;;22.40;50.80;;;26.41;34.00;100959.06;5093039;28;20572;-35
2021/08/27 08:42:04;;;;;;;0.90;0.70;;;22.40;50.90;;;26.39;33.97;100963.69;5092895;28;20405;-34
2021/08/27 08:44:30;;;;;;;1.20;0.80;;;22.30;50.90;;;26.35;34.15;100959.59;5092995;28;20071;-34
2021/08/27 08:46:57;;;;;;;2.72;0.90;;;22.30;51.00;;;26.34;34.15;100959.72;5092979;28;20044;-34
2021/08/27 08:49:28;;;;;;;0.95;0.70;;;22.30;51.10;;;26.34;33.93;100973.94;5092973;28;20108;-34
2021/08/27 08:51:55;;;;;;;1.00;0.90;;;22.20;51.10;;;26.32;34.12;100957.16;5093053;28;20044;-34
2021/08/27 08:54:21;;;;;;;1.40;0.88;;;22.30;51.10;;;26.36;33.95;100963.97;5092733;28;20177;-34
2021/08/27 08:56:47;;;;;;;1.85;0.80;;;22.30;51.00;;;26.40;34.06;100960.03;5092773;28;20048;-34
2021/08/27 08:59:14;;;;;;;0.60;0.60;;;22.40;50.90;;;26.47;34.02;100968.41;5074615;28;20436;-34
2021/08/27 09:01:40;;;;;;;1.85;0.88;;;22.50;50.80;;;26.51;33.88;100960.97;5092940;28;20044;-34
2021/08/27 09:04:06;;;;;;;1.27;1.00;;;22.60;50.60;;;26.53;33.98;100956.31;5092553;28;20477;-35
2021/08/27 09:06:34;;;;;;;0.73;0.70;;;22.60;50.40;;;26.59;33.60;100963.84;5092601;28;20048;-34
2021/08/27 09:09:00;;;;;;;1.08;0.80;;;22.60;50.30;;;26.62;33.64;100961.75;5092537;28;20052;-34
2021/08/27 09:11:28;;;;;;;0.73;0.68;;;22.70;50.20;;;26.66;33.64;100973.09;5092689;28;20044;-34
2021/08/27 09:13:58;;;;;;;1.10;0.68;;;22.70;50.20;;;26.69;33.76;100977.38;5092225;28;20044;-34
2021/08/27 09:16:27;;;;;;;1.08;0.70;;;22.70;50.10;;;26.69;33.43;100966.66;5092461;28;20455;-34
2021/08/27 09:18:54;;;;;;;2.38;1.00;;;22.70;50.10;;;26.68;33.51;100968.50;5092420;28;20071;-34
2021/08/27 09:21:31;;;;;;;1.48;0.93;;;22.70;50.70;;;26.69;33.62;100980.91;5092634;28;20127;-34
2021/08/27 09:24:15;;;;;;;0.95;0.85;;;22.70;50.20;;;26.68;33.53;100979.22;5092354;28;20113;-34
2021/08/27 09:26:47;;;;;;;1.25;0.60;;;22.70;50.30;;;26.64;33.64;100976.91;5092422;28;20048;-34
2021/08/27 09:29:34;;;;;;;1.58;1.08;;;22.60;50.40;;;26.64;33.74;100975.06;5092370;28;20429;-34
2021/08/27 09:32:02;;;;;;;1.08;0.88;;;22.60;50.40;;;26.65;33.62;100974.09;5092041;28;20059;-35
2021/08/27 09:34:29;;;;;;;2.60;0.80;;;22.60;50.30;;;26.64;33.65;100983.13;5056382;28;20055;-34
2021/08/27 09:36:59;;;;;;;1.60;0.80;;;22.60;50.30;;;26.69;33.70;100988.09;5092066;28;20425;-34
2021/08/27 09:39:33;;;;;;;2.22;0.88;;;22.70;50.30;;;26.69;33.45;100980.91;5092054;28;20071;-34
2021/08/27 09:42:00;;;;;;;1.50;1.00;;;22.70;50.20;;;26.74;33.50;100984.03;5092566;28;20473;-34
2021/08/27 09:44:26;;;;;;;1.63;1.10;;;22.80;50.10;;;26.73;33.66;100984.16;5089105;28;20139;-34
2021/08/27 09:46:51;;;;;;;1.25;0.90;;;22.80;50.10;;;26.75;33.83;100979.53;5092034;28;20040;-35
2021/08/27 09:49:37;;;;;;;0.70;0.70;;;22.80;50.00;;;26.81;33.81;100981.69;5090908;28;20044;-34
2021/08/27 09:52:08;;;;;;;1.27;0.88;;;22.90;49.90;;;26.84;33.50;100980.59;5092138;28;20402;-35
2021/08/27 09:54:38;;;;;;;1.08;0.90;;;22.90;49.70;;;26.85;33.31;100983.13;5092181;28;20048;-35
2021/08/27 09:57:06;;;;;;;1.15;0.73;;;22.90;49.80;;;26.91;33.30;100992.50;5092062;28;20055;-35
2021/08/27 09:59:50;;;;;;;1.05;0.77;;;23.00;49.80;;;26.91;33.42;100996.00;5089100;28;20409;-35
2021/08/27 10:02:25;;;;;;;0.70;0.70;;;23.00;50.00;;;26.91;33.26;101000.53;5092979;28;20051;-35
2021/08/27 10:04:57;;;;;;;5.65;1.20;;;22.90;50.40;;;26.86;33.49;100997.41;5095545;28;20079;-34
2021/08/27 10:07:31;;;;;;;1.08;0.90;;;22.80;50.10;;;26.78;33.42;100998.91;5095371;28;20102;-35
2021/08/27 10:09:59;;;;;;;1.45;0.85;;;22.70;50.30;;;26.74;33.42;100994.78;5095409;28;20518;-35
2021/08/27 10:12:29;;;;;;;0.95;0.80;;;22.60;50.40;;;26.69;33.55;100997.00;5077165;28;20171;-35
2021/08/27 10:14:56;;;;;;;0.95;0.88;;;22.60;50.50;;;26.66;33.55;100985.69;5095337;28;20515;-35
2021/08/27 10:17:24;;;;;;;2.55;0.80;;;22.50;50.60;;;26.60;33.84;100997.75;5095324;28;20076;-35
2021/08/27 10:19:50;;;;;;;1.17;1.10;;;22.50;50.80;;;26.54;33.63;100995.56;5095302;28;20040;-35
2021/08/27 10:22:17;;;;;;;2.95;0.80;;;22.40;50.90;;;26.50;33.78;101005.72;5095104;28;20111;-35